sensor_id;sensor_type;location;lat;lon;timestamp;temperature;humidity
64869;DHT22;51349;52.424;10.840;2023-05-23T00:03:32;16.80;99.90
64869;DHT22;51349;52.424;10.840;2023-05-23T00:08:34;16.70;99.90
64869;DHT22;51349;52.424;10.840;2023-05-23T00:13:34;16.70;99.90
64869;DHT22;51349;52.424;10.840;2023-05-23T00:18:36;16.70;99.90
64869;DHT22;51349;52.424;10.840;2023-05-23T00:23:37;16.70;99.90
64869;DHT22;51349;52.424;10.840;2023-05-23T00:28:41;16.70;99.90
64869;DHT22;51349;52.424;10.840;2023-05-23T00:33:42;16.60;99.90
64869;DHT22;51349;52.424;10.840;2023-05-23T00:38:42;16.50;99.90
64869;DHT22;51349;52.424;10.840;2023-05-23T00:43:45;16.50;99.90
64869;DHT22;51349;52.424;10.840;2023-05-23T00:48:46;16.50;99.90
64869;DHT22;51349;52.424;10.840;2023-05-23T00:53:47;16.40;99.90
64869;DHT22;51349;52.424;10.840;2023-05-23T00:58:48;16.40;99.90
64869;DHT22;51349;52.424;10.840;2023-05-23T01:03:49;16.40;99.90
64869;DHT22;51349;52.424;10.840;2023-05-23T01:08:50;16.30;99.90
64869;DHT22;51349;52.424;10.840;2023-05-23T01:14:02;16.30;99.90
64869;DHT22;51349;52.424;10.840;2023-05-23T01:29:45;16.20;99.90
64869;DHT22;51349;52.424;10.840;2023-05-23T01:34:47;16.20;99.90
64869;DHT22;51349;52.424;10.840;2023-05-23T01:39:48;16.30;99.90
64869;DHT22;51349;52.424;10.840;2023-05-23T01:44:49;16.20;99.90
64869;DHT22;51349;52.424;10.840;2023-05-23T01:49:50;16.20;99.90
64869;DHT22;51349;52.424;10.840;2023-05-23T01:54:52;16.20;99.90
64869;DHT22;51349;52.424;10.840;2023-05-23T01:59:53;16.10;99.90
64869;DHT22;51349;52.424;10.840;2023-05-23T02:04:53;16.10;99.90
64869;DHT22;51349;52.424;10.840;2023-05-23T02:09:56;16.10;99.90
64869;DHT22;51349;52.424;10.840;2023-05-23T02:14:57;16.10;99.90
64869;DHT22;51349;52.424;10.840;2023-05-23T02:25:54;16.10;99.90
64869;DHT22;51349;52.424;10.840;2023-05-23T02:30:55;16.10;99.90
64869;DHT22;51349;52.424;10.840;2023-05-23T02:35:56;16.10;99.90
64869;DHT22;51349;52.424;10.840;2023-05-23T02:40:57;16.00;99.90
64869;DHT22;51349;52.424;10.840;2023-05-23T02:45:57;16.00;99.90
64869;DHT22;51349;52.424;10.840;2023-05-23T02:50:58;16.00;99.90
64869;DHT22;51349;52.424;10.840;2023-05-23T02:55:59;16.00;99.90
64869;DHT22;51349;52.424;10.840;2023-05-23T03:01:00;16.00;99.90
64869;DHT22;51349;52.424;10.840;2023-05-23T03:06:02;16.00;99.90
64869;DHT22;51349;52.424;10.840;2023-05-23T03:11:04;15.90;99.90
64869;DHT22;51349;52.424;10.840;2023-05-23T03:16:05;16.00;99.90
64869;DHT22;51349;52.424;10.840;2023-05-23T03:21:06;16.00;99.90
64869;DHT22;51349;52.424;10.840;2023-05-23T03:26:06;16.00;99.90
64869;DHT22;51349;52.424;10.840;2023-05-23T03:31:07;16.00;99.90
64869;DHT22;51349;52.424;10.840;2023-05-23T03:36:08;15.90;99.90
64869;DHT22;51349;52.424;10.840;2023-05-23T03:41:08;16.00;99.90
64869;DHT22;51349;52.424;10.840;2023-05-23T03:46:09;16.00;99.90
64869;DHT22;51349;52.424;10.840;2023-05-23T03:51:09;16.00;99.90
64869;DHT22;51349;52.424;10.840;2023-05-23T03:56:12;15.80;99.90
64869;DHT22;51349;52.424;10.840;2023-05-23T04:01:13;15.50;99.90
64869;DHT22;51349;52.424;10.840;2023-05-23T04:06:14;15.40;99.90
64869;DHT22;51349;52.424;10.840;2023-05-23T04:11:16;15.30;99.90
64869;DHT22;51349;52.424;10.840;2023-05-23T04:16:17;15.40;99.90
64869;DHT22;51349;52.424;10.840;2023-05-23T04:21:17;15.30;99.90
64869;DHT22;51349;52.424;10.840;2023-05-23T04:26:18;15.10;99.90
64869;DHT22;51349;52.424;10.840;2023-05-23T04:31:20;14.80;99.90
64869;DHT22;51349;52.424;10.840;2023-05-23T04:36:23;14.70;99.90
64869;DHT22;51349;52.424;10.840;2023-05-23T04:41:25;14.70;99.90
64869;DHT22;51349;52.424;10.840;2023-05-23T04:46:25;14.70;99.90
64869;DHT22;51349;52.424;10.840;2023-05-23T04:51:26;14.80;99.90
64869;DHT22;51349;52.424;10.840;2023-05-23T04:56:26;14.70;99.90
64869;DHT22;51349;52.424;10.840;2023-05-23T05:01:27;14.70;99.90
64869;DHT22;51349;52.424;10.840;2023-05-23T05:06:28;14.60;99.90
64869;DHT22;51349;52.424;10.840;2023-05-23T05:11:30;14.60;99.90
64869;DHT22;51349;52.424;10.840;2023-05-23T05:16:30;14.50;99.90
64869;DHT22;51349;52.424;10.840;2023-05-23T05:21:31;14.50;99.90
64869;DHT22;51349;52.424;10.840;2023-05-23T05:26:32;14.50;99.90
64869;DHT22;51349;52.424;10.840;2023-05-23T05:31:32;14.40;99.90
64869;DHT22;51349;52.424;10.840;2023-05-23T05:36:35;14.40;99.90
64869;DHT22;51349;52.424;10.840;2023-05-23T05:41:35;14.40;99.90
64869;DHT22;51349;52.424;10.840;2023-05-23T05:46:36;14.70;99.90
64869;DHT22;51349;52.424;10.840;2023-05-23T05:51:37;14.70;99.90
64869;DHT22;51349;52.424;10.840;2023-05-23T05:56:38;14.70;99.90
64869;DHT22;51349;52.424;10.840;2023-05-23T06:01:38;14.70;99.90
64869;DHT22;51349;52.424;10.840;2023-05-23T06:06:40;14.60;99.90
64869;DHT22;51349;52.424;10.840;2023-05-23T06:11:40;14.70;99.90
64869;DHT22;51349;52.424;10.840;2023-05-23T06:16:41;14.80;99.90
64869;DHT22;51349;52.424;10.840;2023-05-23T06:21:42;14.70;99.90
64869;DHT22;51349;52.424;10.840;2023-05-23T06:26:42;14.60;99.90
64869;DHT22;51349;52.424;10.840;2023-05-23T06:31:43;14.50;99.90
64869;DHT22;51349;52.424;10.840;2023-05-23T06:36:44;14.60;99.90
64869;DHT22;51349;52.424;10.840;2023-05-23T06:41:46;14.60;99.90
64869;DHT22;51349;52.424;10.840;2023-05-23T06:46:47;14.50;99.90
64869;DHT22;51349;52.424;10.840;2023-05-23T06:51:48;14.50;99.90
64869;DHT22;51349;52.424;10.840;2023-05-23T06:56:49;14.50;99.90
64869;DHT22;51349;52.424;10.840;2023-05-23T07:01:49;14.30;99.90
64869;DHT22;51349;52.424;10.840;2023-05-23T07:06:50;14.40;99.90
64869;DHT22;51349;52.424;10.840;2023-05-23T07:11:52;14.40;99.90
64869;DHT22;51349;52.424;10.840;2023-05-23T07:16:52;14.50;99.90
64869;DHT22;51349;52.424;10.840;2023-05-23T07:21:53;14.60;99.90
64869;DHT22;51349;52.424;10.840;2023-05-23T07:26:53;14.60;99.90
64869;DHT22;51349;52.424;10.840;2023-05-23T07:31:54;14.50;99.90
64869;DHT22;51349;52.424;10.840;2023-05-23T07:36:55;14.40;99.90
64869;DHT22;51349;52.424;10.840;2023-05-23T07:41:56;14.40;99.90
64869;DHT22;51349;52.424;10.840;2023-05-23T07:46:57;14.40;99.90
64869;DHT22;51349;52.424;10.840;2023-05-23T07:51:57;14.40;99.90
64869;DHT22;51349;52.424;10.840;2023-05-23T07:56:58;14.40;99.90
64869;DHT22;51349;52.424;10.840;2023-05-23T08:01:59;14.30;99.90
64869;DHT22;51349;52.424;10.840;2023-05-23T08:06:59;14.40;99.90
64869;DHT22;51349;52.424;10.840;2023-05-23T08:12:00;14.50;99.90
64869;DHT22;51349;52.424;10.840;2023-05-23T08:17:01;14.40;99.90
64869;DHT22;51349;52.424;10.840;2023-05-23T08:22:02;14.40;99.90
64869;DHT22;51349;52.424;10.840;2023-05-23T08:27:04;14.50;99.90
64869;DHT22;51349;52.424;10.840;2023-05-23T08:32:06;14.60;99.90
64869;DHT22;51349;52.424;10.840;2023-05-23T08:37:06;14.60;99.90
64869;DHT22;51349;52.424;10.840;2023-05-23T08:42:07;14.70;99.90
64869;DHT22;51349;52.424;10.840;2023-05-23T08:47:08;14.70;99.90
64869;DHT22;51349;52.424;10.840;2023-05-23T08:52:11;14.60;99.90
64869;DHT22;51349;52.424;10.840;2023-05-23T08:57:13;14.70;99.90
64869;DHT22;51349;52.424;10.840;2023-05-23T09:02:14;14.70;99.90
64869;DHT22;51349;52.424;10.840;2023-05-23T09:07:18;14.70;99.90
64869;DHT22;51349;52.424;10.840;2023-05-23T09:12:19;14.70;99.90
64869;DHT22;51349;52.424;10.840;2023-05-23T09:17:21;14.70;99.90
64869;DHT22;51349;52.424;10.840;2023-05-23T09:22:24;14.70;99.90
64869;DHT22;51349;52.424;10.840;2023-05-23T09:27:27;14.70;99.90
64869;DHT22;51349;52.424;10.840;2023-05-23T09:32:28;14.70;99.90
64869;DHT22;51349;52.424;10.840;2023-05-23T09:37:38;14.80;99.90
64869;DHT22;51349;52.424;10.840;2023-05-23T09:42:45;14.70;99.90
64869;DHT22;51349;52.424;10.840;2023-05-23T09:47:52;14.60;99.90
64869;DHT22;51349;52.424;10.840;2023-05-23T09:52:52;14.60;99.90
64869;DHT22;51349;52.424;10.840;2023-05-23T09:57:54;14.50;99.90
64869;DHT22;51349;52.424;10.840;2023-05-23T10:03:09;14.50;99.90
64869;DHT22;51349;52.424;10.840;2023-05-23T10:13:20;14.50;99.90
64869;DHT22;51349;52.424;10.840;2023-05-23T10:18:24;14.40;99.90
64869;DHT22;51349;52.424;10.840;2023-05-23T10:23:26;14.40;99.90
64869;DHT22;51349;52.424;10.840;2023-05-23T10:28:28;14.40;99.90
64869;DHT22;51349;52.424;10.840;2023-05-23T10:33:34;14.40;99.90
64869;DHT22;51349;52.424;10.840;2023-05-23T10:38:50;14.50;99.90
64869;DHT22;51349;52.424;10.840;2023-05-23T10:44:20;14.30;99.90
64869;DHT22;51349;52.424;10.840;2023-05-23T10:49:41;14.10;99.90
64869;DHT22;51349;52.424;10.840;2023-05-23T10:54:53;14.10;99.90
64869;DHT22;51349;52.424;10.840;2023-05-23T10:59:54;14.00;99.90
64869;DHT22;51349;52.424;10.840;2023-05-23T11:05:22;13.90;99.90
64869;DHT22;51349;52.424;10.840;2023-05-23T11:10:24;13.80;99.90
64869;DHT22;51349;52.424;10.840;2023-05-23T11:15:24;13.60;99.90
64869;DHT22;51349;52.424;10.840;2023-05-23T11:20:26;13.50;99.90
64869;DHT22;51349;52.424;10.840;2023-05-23T11:25:44;13.50;99.90
64869;DHT22;51349;52.424;10.840;2023-05-23T11:30:48;13.60;99.90
64869;DHT22;51349;52.424;10.840;2023-05-23T11:35:49;13.30;99.90
64869;DHT22;51349;52.424;10.840;2023-05-23T11:40:51;13.20;99.90
64869;DHT22;51349;52.424;10.840;2023-05-23T11:45:51;13.20;99.90
64869;DHT22;51349;52.424;10.840;2023-05-23T11:50:53;13.10;99.90
64869;DHT22;51349;52.424;10.840;2023-05-23T11:56:00;13.10;99.90
64869;DHT22;51349;52.424;10.840;2023-05-23T12:01:09;13.00;99.90
64869;DHT22;51349;52.424;10.840;2023-05-23T12:06:09;12.90;99.90
64869;DHT22;51349;52.424;10.840;2023-05-23T12:11:10;12.90;99.90
64869;DHT22;51349;52.424;10.840;2023-05-23T12:16:13;12.70;99.90
64869;DHT22;51349;52.424;10.840;2023-05-23T12:21:14;12.60;99.90
64869;DHT22;51349;52.424;10.840;2023-05-23T12:26:15;12.50;99.90
64869;DHT22;51349;52.424;10.840;2023-05-23T12:31:18;12.60;99.90
64869;DHT22;51349;52.424;10.840;2023-05-23T12:36:22;12.40;99.90
64869;DHT22;51349;52.424;10.840;2023-05-23T12:41:23;12.40;99.90
64869;DHT22;51349;52.424;10.840;2023-05-23T12:46:25;12.50;99.90
64869;DHT22;51349;52.424;10.840;2023-05-23T12:51:26;12.50;99.90
64869;DHT22;51349;52.424;10.840;2023-05-23T12:56:27;12.40;99.90
64869;DHT22;51349;52.424;10.840;2023-05-23T13:01:27;12.40;99.90
64869;DHT22;51349;52.424;10.840;2023-05-23T13:06:28;12.40;99.90
64869;DHT22;51349;52.424;10.840;2023-05-23T13:11:29;12.40;99.90
64869;DHT22;51349;52.424;10.840;2023-05-23T13:16:31;12.50;99.90
64869;DHT22;51349;52.424;10.840;2023-05-23T13:21:32;12.60;99.90
64869;DHT22;51349;52.424;10.840;2023-05-23T13:26:33;12.60;99.90
64869;DHT22;51349;52.424;10.840;2023-05-23T13:31:34;12.50;99.90
64869;DHT22;51349;52.424;10.840;2023-05-23T13:36:35;12.50;99.90
64869;DHT22;51349;52.424;10.840;2023-05-23T13:41:35;12.70;99.90
64869;DHT22;51349;52.424;10.840;2023-05-23T13:46:36;13.10;99.90
64869;DHT22;51349;52.424;10.840;2023-05-23T13:51:37;13.70;99.90
64869;DHT22;51349;52.424;10.840;2023-05-23T13:56:37;13.70;99.90
64869;DHT22;51349;52.424;10.840;2023-05-23T14:01:39;13.70;99.90
64869;DHT22;51349;52.424;10.840;2023-05-23T14:06:40;13.80;99.90
64869;DHT22;51349;52.424;10.840;2023-05-23T14:11:40;13.90;99.90
64869;DHT22;51349;52.424;10.840;2023-05-23T14:16:41;14.00;99.90
64869;DHT22;51349;52.424;10.840;2023-05-23T14:21:42;13.90;99.90
64869;DHT22;51349;52.424;10.840;2023-05-23T14:26:42;13.90;99.90
64869;DHT22;51349;52.424;10.840;2023-05-23T14:31:43;13.90;99.90
64869;DHT22;51349;52.424;10.840;2023-05-23T14:36:44;13.80;99.90
64869;DHT22;51349;52.424;10.840;2023-05-23T14:41:44;13.90;99.90
64869;DHT22;51349;52.424;10.840;2023-05-23T14:46:46;14.00;99.90
64869;DHT22;51349;52.424;10.840;2023-05-23T14:51:49;13.90;99.90
64869;DHT22;51349;52.424;10.840;2023-05-23T14:56:49;14.10;99.90
64869;DHT22;51349;52.424;10.840;2023-05-23T15:01:50;14.10;99.90
64869;DHT22;51349;52.424;10.840;2023-05-23T15:06:51;14.20;99.90
64869;DHT22;51349;52.424;10.840;2023-05-23T15:11:52;14.50;99.90
64869;DHT22;51349;52.424;10.840;2023-05-23T15:16:52;14.40;99.90
64869;DHT22;51349;52.424;10.840;2023-05-23T15:21:56;14.40;99.90
64869;DHT22;51349;52.424;10.840;2023-05-23T15:26:57;15.20;99.90
64869;DHT22;51349;52.424;10.840;2023-05-23T15:31:58;15.30;99.90
64869;DHT22;51349;52.424;10.840;2023-05-23T15:36:58;15.30;99.90
64869;DHT22;51349;52.424;10.840;2023-05-23T15:41:59;15.10;99.90
64869;DHT22;51349;52.424;10.840;2023-05-23T15:47:00;15.30;99.90
64869;DHT22;51349;52.424;10.840;2023-05-23T15:52:00;14.90;99.90
64869;DHT22;51349;52.424;10.840;2023-05-23T15:57:01;15.40;99.90
64869;DHT22;51349;52.424;10.840;2023-05-23T16:02:02;15.00;99.90
64869;DHT22;51349;52.424;10.840;2023-05-23T16:07:05;14.50;99.90
64869;DHT22;51349;52.424;10.840;2023-05-23T16:12:06;14.70;99.90
64869;DHT22;51349;52.424;10.840;2023-05-23T16:17:07;14.50;99.90
64869;DHT22;51349;52.424;10.840;2023-05-23T16:22:08;14.40;99.90
64869;DHT22;51349;52.424;10.840;2023-05-23T16:27:08;14.20;99.90
64869;DHT22;51349;52.424;10.840;2023-05-23T16:32:09;14.80;99.90
64869;DHT22;51349;52.424;10.840;2023-05-23T16:37:09;15.00;99.90
64869;DHT22;51349;52.424;10.840;2023-05-23T16:42:10;15.40;99.90
64869;DHT22;51349;52.424;10.840;2023-05-23T16:47:11;15.10;99.90
64869;DHT22;51349;52.424;10.840;2023-05-23T16:52:11;14.90;99.90
64869;DHT22;51349;52.424;10.840;2023-05-23T16:57:12;15.00;99.90
64869;DHT22;51349;52.424;10.840;2023-05-23T17:02:13;14.80;99.90
64869;DHT22;51349;52.424;10.840;2023-05-23T17:07:15;14.60;99.90
64869;DHT22;51349;52.424;10.840;2023-05-23T17:12:15;14.60;99.90
64869;DHT22;51349;52.424;10.840;2023-05-23T17:17:16;14.70;99.90
64869;DHT22;51349;52.424;10.840;2023-05-23T17:22:17;14.70;99.90
64869;DHT22;51349;52.424;10.840;2023-05-23T17:27:18;14.50;99.90
64869;DHT22;51349;52.424;10.840;2023-05-23T17:32:18;14.40;99.90
64869;DHT22;51349;52.424;10.840;2023-05-23T17:37:19;14.20;99.90
64869;DHT22;51349;52.424;10.840;2023-05-23T17:42:20;13.90;99.90
64869;DHT22;51349;52.424;10.840;2023-05-23T17:47:20;13.80;99.90
64869;DHT22;51349;52.424;10.840;2023-05-23T17:52:21;13.90;99.90
64869;DHT22;51349;52.424;10.840;2023-05-23T17:57:22;13.70;99.90
64869;DHT22;51349;52.424;10.840;2023-05-23T18:02:22;13.50;99.90
64869;DHT22;51349;52.424;10.840;2023-05-23T18:07:23;13.60;99.90
64869;DHT22;51349;52.424;10.840;2023-05-23T18:12:24;13.30;99.90
64869;DHT22;51349;52.424;10.840;2023-05-23T18:17:25;13.20;99.90
64869;DHT22;51349;52.424;10.840;2023-05-23T18:22:26;13.10;99.90
64869;DHT22;51349;52.424;10.840;2023-05-23T18:27:30;13.10;99.90
64869;DHT22;51349;52.424;10.840;2023-05-23T18:32:31;12.90;99.90
64869;DHT22;51349;52.424;10.840;2023-05-23T18:37:31;12.70;99.90
64869;DHT22;51349;52.424;10.840;2023-05-23T18:42:32;12.70;99.90
64869;DHT22;51349;52.424;10.840;2023-05-23T18:47:33;12.60;99.90
64869;DHT22;51349;52.424;10.840;2023-05-23T18:52:34;12.60;99.90
64869;DHT22;51349;52.424;10.840;2023-05-23T18:57:36;12.40;99.90
64869;DHT22;51349;52.424;10.840;2023-05-23T19:02:37;12.30;99.90
64869;DHT22;51349;52.424;10.840;2023-05-23T19:07:43;12.20;99.90
64869;DHT22;51349;52.424;10.840;2023-05-23T19:12:44;12.00;99.90
64869;DHT22;51349;52.424;10.840;2023-05-23T19:17:45;11.80;99.90
64869;DHT22;51349;52.424;10.840;2023-05-23T19:22:46;11.80;99.90
64869;DHT22;51349;52.424;10.840;2023-05-23T19:27:47;11.60;99.90
64869;DHT22;51349;52.424;10.840;2023-05-23T19:32:48;11.50;99.90
64869;DHT22;51349;52.424;10.840;2023-05-23T19:37:48;11.40;99.90
64869;DHT22;51349;52.424;10.840;2023-05-23T19:42:49;11.30;99.90
64869;DHT22;51349;52.424;10.840;2023-05-23T19:47:50;11.10;99.90
64869;DHT22;51349;52.424;10.840;2023-05-23T19:52:51;11.00;99.90
64869;DHT22;51349;52.424;10.840;2023-05-23T19:57:51;10.90;99.90
64869;DHT22;51349;52.424;10.840;2023-05-23T20:02:52;10.90;99.90
64869;DHT22;51349;52.424;10.840;2023-05-23T20:07:53;10.80;99.90
64869;DHT22;51349;52.424;10.840;2023-05-23T20:12:54;10.70;99.90
64869;DHT22;51349;52.424;10.840;2023-05-23T20:17:54;10.70;99.90
64869;DHT22;51349;52.424;10.840;2023-05-23T20:22:55;10.60;99.90
64869;DHT22;51349;52.424;10.840;2023-05-23T20:27:56;10.60;99.90
64869;DHT22;51349;52.424;10.840;2023-05-23T20:32:57;10.50;99.90
64869;DHT22;51349;52.424;10.840;2023-05-23T20:37:57;10.40;99.90
64869;DHT22;51349;52.424;10.840;2023-05-23T20:42:58;10.50;99.90
64869;DHT22;51349;52.424;10.840;2023-05-23T20:48:03;10.40;99.90
64869;DHT22;51349;52.424;10.840;2023-05-23T20:53:04;10.40;99.90
64869;DHT22;51349;52.424;10.840;2023-05-23T20:58:06;10.40;99.90
64869;DHT22;51349;52.424;10.840;2023-05-23T21:03:06;10.40;99.90
64869;DHT22;51349;52.424;10.840;2023-05-23T21:08:07;10.30;99.90
64869;DHT22;51349;52.424;10.840;2023-05-23T21:13:07;10.30;99.90
64869;DHT22;51349;52.424;10.840;2023-05-23T21:18:08;10.30;99.90
64869;DHT22;51349;52.424;10.840;2023-05-23T21:23:09;10.30;99.90
64869;DHT22;51349;52.424;10.840;2023-05-23T21:28:09;10.20;99.90
64869;DHT22;51349;52.424;10.840;2023-05-23T21:33:10;10.20;99.90
64869;DHT22;51349;52.424;10.840;2023-05-23T21:38:11;10.10;99.90
64869;DHT22;51349;52.424;10.840;2023-05-23T21:43:12;9.90;99.90
64869;DHT22;51349;52.424;10.840;2023-05-23T21:48:13;9.90;99.90
64869;DHT22;51349;52.424;10.840;2023-05-23T21:53:13;9.80;99.90
64869;DHT22;51349;52.424;10.840;2023-05-23T21:58:14;9.80;99.90
64869;DHT22;51349;52.424;10.840;2023-05-23T22:03:15;9.80;99.90
64869;DHT22;51349;52.424;10.840;2023-05-23T22:08:16;9.70;99.90
64869;DHT22;51349;52.424;10.840;2023-05-23T22:13:17;9.70;99.90
64869;DHT22;51349;52.424;10.840;2023-05-23T22:18:18;9.70;99.90
64869;DHT22;51349;52.424;10.840;2023-05-23T22:23:19;9.60;99.90
64869;DHT22;51349;52.424;10.840;2023-05-23T22:28:20;9.60;99.90
64869;DHT22;51349;52.424;10.840;2023-05-23T22:33:21;9.50;99.90
64869;DHT22;51349;52.424;10.840;2023-05-23T22:38:21;9.50;99.90
64869;DHT22;51349;52.424;10.840;2023-05-23T22:43:22;9.40;99.90
64869;DHT22;51349;52.424;10.840;2023-05-23T22:48:23;9.40;99.90
64869;DHT22;51349;52.424;10.840;2023-05-23T22:53:27;9.30;99.90
64869;DHT22;51349;52.424;10.840;2023-05-23T22:58:28;9.30;99.90
64869;DHT22;51349;52.424;10.840;2023-05-23T23:03:29;9.20;99.90
64869;DHT22;51349;52.424;10.840;2023-05-23T23:08:29;9.20;99.90
64869;DHT22;51349;52.424;10.840;2023-05-23T23:13:30;9.20;99.90
64869;DHT22;51349;52.424;10.840;2023-05-23T23:18:31;9.20;99.90
64869;DHT22;51349;52.424;10.840;2023-05-23T23:23:32;9.10;99.90
64869;DHT22;51349;52.424;10.840;2023-05-23T23:28:32;9.20;99.90
64869;DHT22;51349;52.424;10.840;2023-05-23T23:33:33;9.10;99.90
64869;DHT22;51349;52.424;10.840;2023-05-23T23:38:33;9.10;99.90
64869;DHT22;51349;52.424;10.840;2023-05-23T23:43:34;9.00;99.90
64869;DHT22;51349;52.424;10.840;2023-05-23T23:48:35;9.00;99.90
64869;DHT22;51349;52.424;10.840;2023-05-23T23:53:35;8.90;99.90
64869;DHT22;51349;52.424;10.840;2023-05-23T23:58:36;8.90;99.90
